Fargo, ND (58102)

8:06 AM CDT on March 28, 2017 (GMT -0500)
Northport | | Change Station
Active Advisory: Dense Fog Advisory

Elev 899 ft 46.91 °N, 96.79 °W | Updated 2 seconds ago

Fog
Fog
31.1 °F
Feels Like 31 °F
N
1.0
Wind Variable Wind from West

Today
High -- | Low -- °F
--% Chance of Precip.
Yesterday
High -- | Low -- °F
Precip. -- in
Pressure 30.16 in
Visibility 0.2 miles
Clouds
Windchill 31 °F
Dew Point 30 °F
Humidity 98%
Rainfall 0.00 in
Snow Depth Not available.
7:13 AM 7:51 PM
New Moon, 0% visible
METAR KFAR 281253Z 35006KT M1/4SM FG VV002 00/M01 A3013 RMK AO2 SLP212 T00001006
Pressure 30.16 in
Visibility 0.2 miles
Clouds
Windchill 31 °F
Dew Point 30 °F
Humidity 98%
Rainfall 0.00 in
Snow Depth Not available.
7:13 AM 7:51 PM
New Moon, 0% visible
METAR KFAR 281253Z 35006KT M1/4SM FG VV002 00/M01 A3013 RMK AO2 SLP212 T00001006

Get Your Daily Forecast Email!

Thanks for signing up!

Be on the lookout for a verification email in your inbox.

You'll start receiving severe weather alerts in your inbox..

×

10-Day Weather Forecast

Almanac

Astronomy

Mar. 28, 2017 Rise Set
Actual Time
Civil Twilight
Nautical Twilight
Astronomical Twilight
Moon
Length of Visible Light
Length of Day
Tomorrow will be .
, % of the Moon is Illuminated

Today's Extremes

State Highs State Lows

Community

WunderPhotos

Upload Photos

1,962,540 photos uploaded!

WunderBlog® & News

Nearby

Air Quality

  Air Quality AQ Index Pollutant
Not available.

Snow Depth

Station Depth Elevation

Earthquake Activity

City Distance Mag. Time & Date
Minimum magnitude displayed is 2.5.

Earthquake Activity

City Distance Mag. Time & Date
Minimum magnitude displayed is 2.5.

Coastal Water Temperatures

Place Temperature

Stations

Nearby Weather Stations

Station Location Temp. Windchill Dew Point Humidity Wind Precip. Elev Updated Type
                   

Watches & Warnings

Dense Fog Advisory
Issued: 7:01 AM CDT Mar. 28, 2017 – National Weather Service

... Dense fog advisory remains in effect until 10 am CDT this
morning...

* visibilities... less than one quarter mile.

* Impacts... limited visibilities will make travel very difficult.

Precautionary/preparedness actions...

A dense fog advisory means visibilities will frequently be
reduced to less than one quarter mile. If driving, slow down, use
your headlights, and leave plenty of distance ahead of you.